sensor_id;sensor_type;location;lat;lon;timestamp;P1;durP1;ratioP1;P2;durP2;ratioP2
3121;SDS011;1571;52.524;14.104;2023-05-20T00:00:12;4.33;;;3.83;;
3121;SDS011;1571;52.524;14.104;2023-05-20T00:02:41;4.27;;;3.20;;
3121;SDS011;1571;52.524;14.104;2023-05-20T00:05:09;7.40;;;3.83;;
3121;SDS011;1571;52.524;14.104;2023-05-20T00:07:37;4.30;;;3.20;;
3121;SDS011;1571;52.524;14.104;2023-05-20T00:10:06;3.50;;;3.20;;
3121;SDS011;1571;52.524;14.104;2023-05-20T00:12:36;2.83;;;2.63;;
3121;SDS011;1571;52.524;14.104;2023-05-20T00:15:07;4.40;;;3.03;;
3121;SDS011;1571;52.524;14.104;2023-05-20T00:17:37;3.47;;;2.90;;
3121;SDS011;1571;52.524;14.104;2023-05-20T00:20:06;3.63;;;3.00;;
3121;SDS011;1571;52.524;14.104;2023-05-20T00:22:35;4.00;;;3.07;;
3121;SDS011;1571;52.524;14.104;2023-05-20T00:25:03;5.77;;;3.33;;
3121;SDS011;1571;52.524;14.104;2023-05-20T00:27:32;7.43;;;3.90;;
3121;SDS011;1571;52.524;14.104;2023-05-20T00:30:00;4.43;;;3.33;;
3121;SDS011;1571;52.524;14.104;2023-05-20T00:32:30;6.57;;;4.10;;
3121;SDS011;1571;52.524;14.104;2023-05-20T00:34:59;5.83;;;2.77;;
3121;SDS011;1571;52.524;14.104;2023-05-20T00:37:28;3.90;;;2.87;;
3121;SDS011;1571;52.524;14.104;2023-05-20T00:39:56;3.10;;;2.80;;
3121;SDS011;1571;52.524;14.104;2023-05-20T00:42:25;4.10;;;3.70;;
3121;SDS011;1571;52.524;14.104;2023-05-20T00:44:55;3.70;;;3.13;;
3121;SDS011;1571;52.524;14.104;2023-05-20T00:47:24;4.63;;;3.60;;
3121;SDS011;1571;52.524;14.104;2023-05-20T00:49:56;5.73;;;2.93;;
3121;SDS011;1571;52.524;14.104;2023-05-20T00:52:24;5.83;;;3.50;;
3121;SDS011;1571;52.524;14.104;2023-05-20T00:54:56;2.90;;;2.70;;
3121;SDS011;1571;52.524;14.104;2023-05-20T00:57:25;6.10;;;2.53;;
3121;SDS011;1571;52.524;14.104;2023-05-20T00:59:53;5.17;;;2.80;;
3121;SDS011;1571;52.524;14.104;2023-05-20T01:02:22;7.20;;;3.37;;
3121;SDS011;1571;52.524;14.104;2023-05-20T01:04:52;5.57;;;2.80;;
3121;SDS011;1571;52.524;14.104;2023-05-20T01:07:24;4.00;;;3.70;;
3121;SDS011;1571;52.524;14.104;2023-05-20T01:09:52;4.20;;;2.90;;
3121;SDS011;1571;52.524;14.104;2023-05-20T01:12:22;3.63;;;2.90;;
3121;SDS011;1571;52.524;14.104;2023-05-20T01:14:55;6.80;;;3.83;;
3121;SDS011;1571;52.524;14.104;2023-05-20T01:17:28;8.00;;;3.43;;
3121;SDS011;1571;52.524;14.104;2023-05-20T01:20:01;4.90;;;3.23;;
3121;SDS011;1571;52.524;14.104;2023-05-20T01:22:31;5.63;;;3.40;;
3121;SDS011;1571;52.524;14.104;2023-05-20T01:25:01;2.80;;;2.53;;
3121;SDS011;1571;52.524;14.104;2023-05-20T01:27:31;3.50;;;2.60;;
3121;SDS011;1571;52.524;14.104;2023-05-20T01:29:59;3.50;;;3.20;;
3121;SDS011;1571;52.524;14.104;2023-05-20T01:32:30;5.50;;;3.27;;
3121;SDS011;1571;52.524;14.104;2023-05-20T01:35:02;6.30;;;2.80;;
3121;SDS011;1571;52.524;14.104;2023-05-20T01:37:33;4.43;;;3.00;;
3121;SDS011;1571;52.524;14.104;2023-05-20T01:40:05;3.00;;;2.60;;
3121;SDS011;1571;52.524;14.104;2023-05-20T01:42:35;3.13;;;2.73;;
3121;SDS011;1571;52.524;14.104;2023-05-20T01:45:05;5.83;;;4.03;;
3121;SDS011;1571;52.524;14.104;2023-05-20T01:47:34;3.47;;;2.90;;
3121;SDS011;1571;52.524;14.104;2023-05-20T01:50:03;3.37;;;3.07;;
3121;SDS011;1571;52.524;14.104;2023-05-20T01:52:33;2.67;;;2.47;;
3121;SDS011;1571;52.524;14.104;2023-05-20T01:55:02;3.00;;;2.80;;
3121;SDS011;1571;52.524;14.104;2023-05-20T01:57:30;8.67;;;3.30;;
3121;SDS011;1571;52.524;14.104;2023-05-20T01:59:58;2.57;;;2.27;;
3121;SDS011;1571;52.524;14.104;2023-05-20T02:02:27;4.07;;;3.70;;
3121;SDS011;1571;52.524;14.104;2023-05-20T02:04:55;9.67;;;4.13;;
3121;SDS011;1571;52.524;14.104;2023-05-20T02:07:23;7.80;;;3.70;;
3121;SDS011;1571;52.524;14.104;2023-05-20T02:09:53;7.40;;;3.40;;
3121;SDS011;1571;52.524;14.104;2023-05-20T02:12:21;7.40;;;3.70;;
3121;SDS011;1571;52.524;14.104;2023-05-20T02:14:49;4.70;;;3.00;;
3121;SDS011;1571;52.524;14.104;2023-05-20T02:17:18;4.00;;;3.10;;
3121;SDS011;1571;52.524;14.104;2023-05-20T02:19:46;4.00;;;3.00;;
3121;SDS011;1571;52.524;14.104;2023-05-20T02:22:15;4.07;;;3.60;;
3121;SDS011;1571;52.524;14.104;2023-05-20T02:24:43;3.27;;;2.97;;
3121;SDS011;1571;52.524;14.104;2023-05-20T02:27:13;6.40;;;3.43;;
3121;SDS011;1571;52.524;14.104;2023-05-20T02:29:41;4.47;;;2.93;;
3121;SDS011;1571;52.524;14.104;2023-05-20T02:32:10;3.87;;;3.53;;
3121;SDS011;1571;52.524;14.104;2023-05-20T02:34:39;3.20;;;2.60;;
3121;SDS011;1571;52.524;14.104;2023-05-20T02:37:08;4.53;;;3.43;;
3121;SDS011;1571;52.524;14.104;2023-05-20T02:39:36;3.50;;;3.20;;
3121;SDS011;1571;52.524;14.104;2023-05-20T02:42:05;6.10;;;3.03;;
3121;SDS011;1571;52.524;14.104;2023-05-20T02:44:34;5.07;;;2.77;;
3121;SDS011;1571;52.524;14.104;2023-05-20T02:47:03;6.53;;;3.53;;
3121;SDS011;1571;52.524;14.104;2023-05-20T02:49:32;3.97;;;3.03;;
3121;SDS011;1571;52.524;14.104;2023-05-20T02:52:01;4.53;;;4.13;;
3121;SDS011;1571;52.524;14.104;2023-05-20T02:54:30;3.07;;;2.87;;
3121;SDS011;1571;52.524;14.104;2023-05-20T02:56:58;4.23;;;3.53;;
3121;SDS011;1571;52.524;14.104;2023-05-20T02:59:26;4.33;;;3.70;;
3121;SDS011;1571;52.524;14.104;2023-05-20T03:01:56;5.50;;;3.20;;
3121;SDS011;1571;52.524;14.104;2023-05-20T03:04:24;3.57;;;3.27;;
3121;SDS011;1571;52.524;14.104;2023-05-20T03:06:53;8.27;;;3.33;;
3121;SDS011;1571;52.524;14.104;2023-05-20T03:09:23;4.30;;;3.00;;
3121;SDS011;1571;52.524;14.104;2023-05-20T03:11:52;3.50;;;3.20;;
3121;SDS011;1571;52.524;14.104;2023-05-20T03:14:20;4.63;;;3.60;;
3121;SDS011;1571;52.524;14.104;2023-05-20T03:16:48;4.77;;;3.60;;
3121;SDS011;1571;52.524;14.104;2023-05-20T03:19:19;4.50;;;3.47;;
3121;SDS011;1571;52.524;14.104;2023-05-20T03:21:48;4.30;;;2.77;;
3121;SDS011;1571;52.524;14.104;2023-05-20T03:24:17;4.30;;;3.43;;
3121;SDS011;1571;52.524;14.104;2023-05-20T03:26:46;3.77;;;3.47;;
3121;SDS011;1571;52.524;14.104;2023-05-20T03:29:15;5.47;;;3.80;;
3121;SDS011;1571;52.524;14.104;2023-05-20T03:31:43;3.70;;;3.40;;
3121;SDS011;1571;52.524;14.104;2023-05-20T03:34:12;5.30;;;3.77;;
3121;SDS011;1571;52.524;14.104;2023-05-20T03:36:42;3.80;;;3.50;;
3121;SDS011;1571;52.524;14.104;2023-05-20T03:39:11;5.23;;;4.20;;
3121;SDS011;1571;52.524;14.104;2023-05-20T03:41:40;5.00;;;4.10;;
3121;SDS011;1571;52.524;14.104;2023-05-20T03:44:09;5.13;;;3.47;;
3121;SDS011;1571;52.524;14.104;2023-05-20T03:46:38;3.57;;;2.93;;
3121;SDS011;1571;52.524;14.104;2023-05-20T03:49:07;4.83;;;3.90;;
3121;SDS011;1571;52.524;14.104;2023-05-20T03:51:35;5.30;;;3.87;;
3121;SDS011;1571;52.524;14.104;2023-05-20T03:54:10;3.27;;;3.00;;
3121;SDS011;1571;52.524;14.104;2023-05-20T03:56:39;6.67;;;4.40;;
3121;SDS011;1571;52.524;14.104;2023-05-20T03:59:08;7.60;;;4.77;;
3121;SDS011;1571;52.524;14.104;2023-05-20T04:01:36;4.23;;;3.77;;
3121;SDS011;1571;52.524;14.104;2023-05-20T04:04:05;5.40;;;3.33;;
3121;SDS011;1571;52.524;14.104;2023-05-20T04:06:33;6.10;;;4.03;;
3121;SDS011;1571;52.524;14.104;2023-05-20T04:09:02;4.37;;;3.53;;
3121;SDS011;1571;52.524;14.104;2023-05-20T04:11:32;5.37;;;4.63;;
3121;SDS011;1571;52.524;14.104;2023-05-20T04:14:00;3.20;;;3.00;;
3121;SDS011;1571;52.524;14.104;2023-05-20T04:16:29;4.00;;;3.47;;
3121;SDS011;1571;52.524;14.104;2023-05-20T04:18:57;4.40;;;3.80;;
3121;SDS011;1571;52.524;14.104;2023-05-20T04:21:26;3.67;;;3.37;;
3121;SDS011;1571;52.524;14.104;2023-05-20T04:23:55;4.30;;;3.80;;
3121;SDS011;1571;52.524;14.104;2023-05-20T04:26:23;4.10;;;3.80;;
3121;SDS011;1571;52.524;14.104;2023-05-20T04:28:53;4.67;;;3.50;;
3121;SDS011;1571;52.524;14.104;2023-05-20T04:31:24;4.03;;;3.73;;
3121;SDS011;1571;52.524;14.104;2023-05-20T04:33:53;5.33;;;4.30;;
3121;SDS011;1571;52.524;14.104;2023-05-20T04:36:22;5.30;;;3.83;;
3121;SDS011;1571;52.524;14.104;2023-05-20T04:38:54;7.53;;;3.93;;
3121;SDS011;1571;52.524;14.104;2023-05-20T04:41:23;5.77;;;4.70;;
3121;SDS011;1571;52.524;14.104;2023-05-20T04:43:52;8.93;;;4.63;;
3121;SDS011;1571;52.524;14.104;2023-05-20T04:46:25;6.83;;;3.83;;
3121;SDS011;1571;52.524;14.104;2023-05-20T04:48:54;20.20;;;5.20;;
3121;SDS011;1571;52.524;14.104;2023-05-20T04:51:22;13.93;;;5.13;;
3121;SDS011;1571;52.524;14.104;2023-05-20T04:53:51;7.50;;;4.10;;
3121;SDS011;1571;52.524;14.104;2023-05-20T04:56:19;5.40;;;4.00;;
3121;SDS011;1571;52.524;14.104;2023-05-20T04:58:48;7.43;;;4.00;;
3121;SDS011;1571;52.524;14.104;2023-05-20T05:01:19;4.10;;;3.80;;
3121;SDS011;1571;52.524;14.104;2023-05-20T05:03:48;7.43;;;3.80;;
3121;SDS011;1571;52.524;14.104;2023-05-20T05:06:16;4.70;;;3.87;;
3121;SDS011;1571;52.524;14.104;2023-05-20T05:08:44;3.80;;;3.40;;
3121;SDS011;1571;52.524;14.104;2023-05-20T05:11:13;4.30;;;3.90;;
3121;SDS011;1571;52.524;14.104;2023-05-20T05:13:41;4.57;;;3.60;;
3121;SDS011;1571;52.524;14.104;2023-05-20T05:16:10;5.77;;;4.00;;
3121;SDS011;1571;52.524;14.104;2023-05-20T05:18:40;5.50;;;4.23;;
3121;SDS011;1571;52.524;14.104;2023-05-20T05:21:08;4.90;;;4.20;;
3121;SDS011;1571;52.524;14.104;2023-05-20T05:23:37;4.47;;;3.97;;
3121;SDS011;1571;52.524;14.104;2023-05-20T05:26:05;5.43;;;4.23;;
3121;SDS011;1571;52.524;14.104;2023-05-20T05:28:34;10.30;;;4.70;;
3121;SDS011;1571;52.524;14.104;2023-05-20T05:31:02;3.53;;;3.23;;
3121;SDS011;1571;52.524;14.104;2023-05-20T05:33:32;5.73;;;4.17;;
3121;SDS011;1571;52.524;14.104;2023-05-20T05:36:02;7.30;;;4.50;;
3121;SDS011;1571;52.524;14.104;2023-05-20T05:38:31;5.53;;;4.17;;
3121;SDS011;1571;52.524;14.104;2023-05-20T05:40:59;5.10;;;3.20;;
3121;SDS011;1571;52.524;14.104;2023-05-20T05:43:29;5.10;;;4.57;;
3121;SDS011;1571;52.524;14.104;2023-05-20T05:45:57;5.10;;;4.60;;
3121;SDS011;1571;52.524;14.104;2023-05-20T05:48:26;4.93;;;4.50;;
3121;SDS011;1571;52.524;14.104;2023-05-20T05:50:54;6.77;;;4.33;;
3121;SDS011;1571;52.524;14.104;2023-05-20T05:53:25;6.00;;;5.37;;
3121;SDS011;1571;52.524;14.104;2023-05-20T05:55:53;4.60;;;4.27;;
3121;SDS011;1571;52.524;14.104;2023-05-20T05:58:21;7.70;;;3.67;;
3121;SDS011;1571;52.524;14.104;2023-05-20T06:00:50;4.23;;;3.80;;
3121;SDS011;1571;52.524;14.104;2023-05-20T06:03:18;6.27;;;4.00;;
3121;SDS011;1571;52.524;14.104;2023-05-20T06:05:47;4.10;;;3.60;;
3121;SDS011;1571;52.524;14.104;2023-05-20T06:08:15;4.87;;;4.33;;
3121;SDS011;1571;52.524;14.104;2023-05-20T06:10:47;5.07;;;4.60;;
3121;SDS011;1571;52.524;14.104;2023-05-20T06:13:16;5.30;;;4.37;;
3121;SDS011;1571;52.524;14.104;2023-05-20T06:15:45;7.67;;;6.13;;
3121;SDS011;1571;52.524;14.104;2023-05-20T06:18:16;5.80;;;4.07;;
3121;SDS011;1571;52.524;14.104;2023-05-20T06:20:45;7.70;;;4.80;;
3121;SDS011;1571;52.524;14.104;2023-05-20T06:23:13;7.37;;;4.50;;
3121;SDS011;1571;52.524;14.104;2023-05-20T06:25:56;4.47;;;3.67;;
3121;SDS011;1571;52.524;14.104;2023-05-20T06:28:24;5.90;;;4.70;;
3121;SDS011;1571;52.524;14.104;2023-05-20T06:30:53;4.00;;;3.70;;
3121;SDS011;1571;52.524;14.104;2023-05-20T06:33:22;4.63;;;4.07;;
3121;SDS011;1571;52.524;14.104;2023-05-20T06:35:53;5.57;;;4.47;;
3121;SDS011;1571;52.524;14.104;2023-05-20T06:38:22;5.07;;;4.73;;
3121;SDS011;1571;52.524;14.104;2023-05-20T06:40:50;10.27;;;4.70;;
3121;SDS011;1571;52.524;14.104;2023-05-20T06:43:20;5.83;;;5.33;;
3121;SDS011;1571;52.524;14.104;2023-05-20T06:45:59;6.03;;;5.37;;
3121;SDS011;1571;52.524;14.104;2023-05-20T06:48:33;9.40;;;5.40;;
3121;SDS011;1571;52.524;14.104;2023-05-20T06:51:01;7.57;;;5.10;;
3121;SDS011;1571;52.524;14.104;2023-05-20T06:53:31;7.80;;;5.03;;
3121;SDS011;1571;52.524;14.104;2023-05-20T06:55:59;5.80;;;5.20;;
3121;SDS011;1571;52.524;14.104;2023-05-20T06:58:28;7.07;;;6.53;;
3121;SDS011;1571;52.524;14.104;2023-05-20T07:00:57;8.40;;;6.00;;
3121;SDS011;1571;52.524;14.104;2023-05-20T07:03:26;9.47;;;5.77;;
3121;SDS011;1571;52.524;14.104;2023-05-20T07:05:54;11.10;;;5.50;;
3121;SDS011;1571;52.524;14.104;2023-05-20T07:08:23;6.63;;;5.53;;
3121;SDS011;1571;52.524;14.104;2023-05-20T07:10:54;8.23;;;5.50;;
3121;SDS011;1571;52.524;14.104;2023-05-20T07:13:23;8.33;;;5.67;;
3121;SDS011;1571;52.524;14.104;2023-05-20T07:15:53;6.80;;;6.27;;
3121;SDS011;1571;52.524;14.104;2023-05-20T07:18:21;4.97;;;4.57;;
3121;SDS011;1571;52.524;14.104;2023-05-20T07:20:52;6.57;;;5.60;;
3121;SDS011;1571;52.524;14.104;2023-05-20T07:23:57;5.70;;;5.20;;
3121;SDS011;1571;52.524;14.104;2023-05-20T07:26:26;6.60;;;5.33;;
3121;SDS011;1571;52.524;14.104;2023-05-20T07:28:54;5.60;;;5.20;;
3121;SDS011;1571;52.524;14.104;2023-05-20T07:31:24;8.97;;;5.57;;
3121;SDS011;1571;52.524;14.104;2023-05-20T07:33:52;6.03;;;5.37;;
3121;SDS011;1571;52.524;14.104;2023-05-20T07:36:22;5.27;;;4.77;;
3121;SDS011;1571;52.524;14.104;2023-05-20T07:38:52;7.10;;;5.97;;
3121;SDS011;1571;52.524;14.104;2023-05-20T07:41:35;10.90;;;5.20;;
3121;SDS011;1571;52.524;14.104;2023-05-20T07:44:05;7.50;;;5.00;;
3121;SDS011;1571;52.524;14.104;2023-05-20T07:46:39;5.90;;;5.30;;
3121;SDS011;1571;52.524;14.104;2023-05-20T07:49:08;6.80;;;5.60;;
3121;SDS011;1571;52.524;14.104;2023-05-20T07:51:38;5.47;;;4.97;;
3121;SDS011;1571;52.524;14.104;2023-05-20T07:54:06;5.63;;;4.53;;
3121;SDS011;1571;52.524;14.104;2023-05-20T07:56:36;4.97;;;4.50;;
3121;SDS011;1571;52.524;14.104;2023-05-20T07:59:05;7.83;;;5.10;;
3121;SDS011;1571;52.524;14.104;2023-05-20T08:01:41;6.67;;;5.97;;
3121;SDS011;1571;52.524;14.104;2023-05-20T08:04:11;5.27;;;4.77;;
3121;SDS011;1571;52.524;14.104;2023-05-20T08:06:39;6.13;;;4.40;;
3121;SDS011;1571;52.524;14.104;2023-05-20T08:09:15;6.03;;;4.83;;
3121;SDS011;1571;52.524;14.104;2023-05-20T08:11:47;6.20;;;4.87;;
3121;SDS011;1571;52.524;14.104;2023-05-20T08:14:16;7.27;;;4.60;;
3121;SDS011;1571;52.524;14.104;2023-05-20T08:16:50;7.10;;;5.80;;
3121;SDS011;1571;52.524;14.104;2023-05-20T08:19:21;7.43;;;5.23;;
3121;SDS011;1571;52.524;14.104;2023-05-20T08:21:49;6.33;;;5.70;;
3121;SDS011;1571;52.524;14.104;2023-05-20T08:24:17;7.60;;;6.47;;
3121;SDS011;1571;52.524;14.104;2023-05-20T08:26:47;5.97;;;4.80;;
3121;SDS011;1571;52.524;14.104;2023-05-20T08:29:17;7.00;;;6.30;;
3121;SDS011;1571;52.524;14.104;2023-05-20T08:31:45;5.93;;;5.17;;
3121;SDS011;1571;52.524;14.104;2023-05-20T08:34:16;6.40;;;5.80;;
3121;SDS011;1571;52.524;14.104;2023-05-20T08:36:45;9.47;;;6.60;;
3121;SDS011;1571;52.524;14.104;2023-05-20T08:39:13;8.83;;;7.47;;
3121;SDS011;1571;52.524;14.104;2023-05-20T08:41:42;9.20;;;8.00;;
3121;SDS011;1571;52.524;14.104;2023-05-20T08:44:14;12.03;;;8.13;;
3121;SDS011;1571;52.524;14.104;2023-05-20T08:46:44;9.63;;;7.90;;
3121;SDS011;1571;52.524;14.104;2023-05-20T08:49:13;9.83;;;7.80;;
3121;SDS011;1571;52.524;14.104;2023-05-20T08:51:42;17.83;;;10.30;;
3121;SDS011;1571;52.524;14.104;2023-05-20T08:54:12;14.07;;;9.53;;
3121;SDS011;1571;52.524;14.104;2023-05-20T08:56:42;11.40;;;9.53;;
3121;SDS011;1571;52.524;14.104;2023-05-20T08:59:11;15.10;;;8.90;;
3121;SDS011;1571;52.524;14.104;2023-05-20T09:01:40;9.57;;;8.20;;
3121;SDS011;1571;52.524;14.104;2023-05-20T09:04:10;9.57;;;8.40;;
3121;SDS011;1571;52.524;14.104;2023-05-20T09:06:42;12.27;;;8.13;;
3121;SDS011;1571;52.524;14.104;2023-05-20T09:09:11;9.40;;;7.90;;
3121;SDS011;1571;52.524;14.104;2023-05-20T09:11:40;15.90;;;8.33;;
3121;SDS011;1571;52.524;14.104;2023-05-20T09:14:09;11.70;;;7.50;;
3121;SDS011;1571;52.524;14.104;2023-05-20T09:16:38;9.37;;;7.10;;
3121;SDS011;1571;52.524;14.104;2023-05-20T09:19:07;9.50;;;8.20;;
3121;SDS011;1571;52.524;14.104;2023-05-20T09:21:37;8.80;;;7.13;;
3121;SDS011;1571;52.524;14.104;2023-05-20T09:24:10;7.67;;;6.90;;
3121;SDS011;1571;52.524;14.104;2023-05-20T09:26:38;9.03;;;7.43;;
3121;SDS011;1571;52.524;14.104;2023-05-20T09:29:06;9.60;;;7.03;;
3121;SDS011;1571;52.524;14.104;2023-05-20T09:31:35;7.93;;;7.10;;
3121;SDS011;1571;52.524;14.104;2023-05-20T09:34:05;9.17;;;6.80;;
3121;SDS011;1571;52.524;14.104;2023-05-20T09:36:34;7.27;;;6.57;;
3121;SDS011;1571;52.524;14.104;2023-05-20T09:39:02;7.87;;;6.63;;
3121;SDS011;1571;52.524;14.104;2023-05-20T09:41:34;9.63;;;7.53;;
3121;SDS011;1571;52.524;14.104;2023-05-20T09:44:06;7.70;;;6.27;;
3121;SDS011;1571;52.524;14.104;2023-05-20T09:46:35;17.40;;;8.00;;
3121;SDS011;1571;52.524;14.104;2023-05-20T09:49:04;12.63;;;8.40;;
3121;SDS011;1571;52.524;14.104;2023-05-20T09:51:33;8.57;;;7.77;;
3121;SDS011;1571;52.524;14.104;2023-05-20T09:54:02;7.47;;;6.67;;
3121;SDS011;1571;52.524;14.104;2023-05-20T09:56:34;10.80;;;7.90;;
3121;SDS011;1571;52.524;14.104;2023-05-20T09:59:04;8.80;;;6.50;;
3121;SDS011;1571;52.524;14.104;2023-05-20T10:01:32;10.33;;;7.30;;
3121;SDS011;1571;52.524;14.104;2023-05-20T10:04:01;8.33;;;6.60;;
3121;SDS011;1571;52.524;14.104;2023-05-20T10:06:43;12.87;;;8.53;;
3121;SDS011;1571;52.524;14.104;2023-05-20T10:09:30;9.23;;;7.13;;
3121;SDS011;1571;52.524;14.104;2023-05-20T10:12:10;11.13;;;8.33;;
3121;SDS011;1571;52.524;14.104;2023-05-20T10:14:49;9.67;;;8.43;;
3121;SDS011;1571;52.524;14.104;2023-05-20T10:17:27;13.80;;;8.13;;
3121;SDS011;1571;52.524;14.104;2023-05-20T10:20:05;7.37;;;6.67;;
3121;SDS011;1571;52.524;14.104;2023-05-20T10:22:37;11.67;;;9.70;;
3121;SDS011;1571;52.524;14.104;2023-05-20T10:25:11;14.63;;;8.80;;
3121;SDS011;1571;52.524;14.104;2023-05-20T10:28:02;9.47;;;7.97;;
3121;SDS011;1571;52.524;14.104;2023-05-20T10:30:33;7.23;;;6.50;;
3121;SDS011;1571;52.524;14.104;2023-05-20T10:33:03;11.20;;;7.93;;
3121;SDS011;1571;52.524;14.104;2023-05-20T10:35:33;8.37;;;7.57;;
3121;SDS011;1571;52.524;14.104;2023-05-20T10:38:07;10.10;;;7.50;;
3121;SDS011;1571;52.524;14.104;2023-05-20T10:40:37;17.57;;;10.60;;
3121;SDS011;1571;52.524;14.104;2023-05-20T10:43:11;12.53;;;8.57;;
3121;SDS011;1571;52.524;14.104;2023-05-20T10:45:49;9.87;;;8.33;;
3121;SDS011;1571;52.524;14.104;2023-05-20T10:48:19;11.13;;;8.33;;
3121;SDS011;1571;52.524;14.104;2023-05-20T10:50:49;10.63;;;8.23;;
3121;SDS011;1571;52.524;14.104;2023-05-20T10:53:17;11.90;;;8.37;;
3121;SDS011;1571;52.524;14.104;2023-05-20T10:56:00;10.03;;;7.73;;
3121;SDS011;1571;52.524;14.104;2023-05-20T10:58:35;11.27;;;8.67;;
3121;SDS011;1571;52.524;14.104;2023-05-20T11:01:05;10.13;;;8.97;;
3121;SDS011;1571;52.524;14.104;2023-05-20T11:03:33;8.30;;;7.50;;
3121;SDS011;1571;52.524;14.104;2023-05-20T11:06:09;11.63;;;8.50;;
3121;SDS011;1571;52.524;14.104;2023-05-20T11:08:38;10.07;;;8.50;;
3121;SDS011;1571;52.524;14.104;2023-05-20T11:11:06;13.00;;;9.13;;
3121;SDS011;1571;52.524;14.104;2023-05-20T11:13:36;9.47;;;8.23;;
3121;SDS011;1571;52.524;14.104;2023-05-20T11:16:05;13.87;;;8.50;;
3121;SDS011;1571;52.524;14.104;2023-05-20T11:18:33;11.90;;;7.20;;
3121;SDS011;1571;52.524;14.104;2023-05-20T11:21:02;8.33;;;7.50;;
3121;SDS011;1571;52.524;14.104;2023-05-20T11:23:31;10.67;;;8.27;;
3121;SDS011;1571;52.524;14.104;2023-05-20T11:25:59;8.10;;;7.40;;
3121;SDS011;1571;52.524;14.104;2023-05-20T11:28:28;8.10;;;7.30;;
3121;SDS011;1571;52.524;14.104;2023-05-20T11:31:00;15.20;;;7.83;;
3121;SDS011;1571;52.524;14.104;2023-05-20T11:33:29;9.67;;;8.67;;
3121;SDS011;1571;52.524;14.104;2023-05-20T11:35:58;9.87;;;7.83;;
3121;SDS011;1571;52.524;14.104;2023-05-20T11:38:26;11.60;;;8.20;;
3121;SDS011;1571;52.524;14.104;2023-05-20T11:40:54;11.00;;;8.30;;
3121;SDS011;1571;52.524;14.104;2023-05-20T11:43:23;9.13;;;8.33;;
3121;SDS011;1571;52.524;14.104;2023-05-20T11:45:52;12.23;;;8.43;;
3121;SDS011;1571;52.524;14.104;2023-05-20T11:48:23;8.70;;;7.60;;
3121;SDS011;1571;52.524;14.104;2023-05-20T11:50:53;10.63;;;8.00;;
3121;SDS011;1571;52.524;14.104;2023-05-20T11:53:23;8.50;;;7.70;;
3121;SDS011;1571;52.524;14.104;2023-05-20T11:55:52;9.00;;;8.20;;
3121;SDS011;1571;52.524;14.104;2023-05-20T11:58:22;8.67;;;7.83;;
3121;SDS011;1571;52.524;14.104;2023-05-20T12:00:51;9.27;;;8.10;;
3121;SDS011;1571;52.524;14.104;2023-05-20T12:03:36;9.63;;;7.60;;
3121;SDS011;1571;52.524;14.104;2023-05-20T12:06:04;8.73;;;7.10;;
3121;SDS011;1571;52.524;14.104;2023-05-20T12:08:33;9.37;;;8.40;;
3121;SDS011;1571;52.524;14.104;2023-05-20T12:11:02;12.00;;;8.03;;
3121;SDS011;1571;52.524;14.104;2023-05-20T12:13:30;7.43;;;6.70;;
3121;SDS011;1571;52.524;14.104;2023-05-20T12:16:01;7.50;;;6.70;;
3121;SDS011;1571;52.524;14.104;2023-05-20T12:18:30;8.60;;;7.80;;
3121;SDS011;1571;52.524;14.104;2023-05-20T12:20:59;8.00;;;7.27;;
3121;SDS011;1571;52.524;14.104;2023-05-20T12:23:28;13.80;;;8.13;;
3121;SDS011;1571;52.524;14.104;2023-05-20T12:25:59;10.10;;;7.07;;
3121;SDS011;1571;52.524;14.104;2023-05-20T12:28:28;7.97;;;7.27;;
3121;SDS011;1571;52.524;14.104;2023-05-20T12:30:57;7.30;;;6.57;;
3121;SDS011;1571;52.524;14.104;2023-05-20T12:33:26;14.90;;;9.20;;
3121;SDS011;1571;52.524;14.104;2023-05-20T12:35:54;8.43;;;7.63;;
3121;SDS011;1571;52.524;14.104;2023-05-20T12:38:24;15.37;;;7.50;;
3121;SDS011;1571;52.524;14.104;2023-05-20T12:40:52;10.07;;;7.00;;
3121;SDS011;1571;52.524;14.104;2023-05-20T12:43:20;8.80;;;7.53;;
3121;SDS011;1571;52.524;14.104;2023-05-20T12:45:49;7.07;;;6.37;;
3121;SDS011;1571;52.524;14.104;2023-05-20T12:48:18;9.03;;;6.33;;
3121;SDS011;1571;52.524;14.104;2023-05-20T12:50:46;7.50;;;6.80;;
3121;SDS011;1571;52.524;14.104;2023-05-20T12:53:14;7.90;;;6.97;;
3121;SDS011;1571;52.524;14.104;2023-05-20T12:55:44;7.23;;;6.53;;
3121;SDS011;1571;52.524;14.104;2023-05-20T12:58:12;10.53;;;7.57;;
3121;SDS011;1571;52.524;14.104;2023-05-20T13:00:40;8.87;;;6.60;;
3121;SDS011;1571;52.524;14.104;2023-05-20T13:03:08;7.30;;;6.40;;
3121;SDS011;1571;52.524;14.104;2023-05-20T13:05:37;9.87;;;7.70;;
3121;SDS011;1571;52.524;14.104;2023-05-20T13:08:05;7.90;;;6.30;;
3121;SDS011;1571;52.524;14.104;2023-05-20T13:10:34;8.00;;;6.70;;
3121;SDS011;1571;52.524;14.104;2023-05-20T13:13:05;7.70;;;6.93;;
3121;SDS011;1571;52.524;14.104;2023-05-20T13:15:33;7.57;;;6.87;;
3121;SDS011;1571;52.524;14.104;2023-05-20T13:18:02;7.37;;;6.87;;
3121;SDS011;1571;52.524;14.104;2023-05-20T13:20:32;7.43;;;6.70;;
3121;SDS011;1571;52.524;14.104;2023-05-20T13:23:01;7.23;;;6.60;;
3121;SDS011;1571;52.524;14.104;2023-05-20T13:25:29;5.87;;;5.37;;
3121;SDS011;1571;52.524;14.104;2023-05-20T13:27:58;6.20;;;5.70;;
3121;SDS011;1571;52.524;14.104;2023-05-20T13:30:28;7.43;;;6.40;;
3121;SDS011;1571;52.524;14.104;2023-05-20T13:32:56;6.33;;;5.83;;
3121;SDS011;1571;52.524;14.104;2023-05-20T13:35:25;7.10;;;6.47;;
3121;SDS011;1571;52.524;14.104;2023-05-20T13:37:53;6.93;;;6.33;;
3121;SDS011;1571;52.524;14.104;2023-05-20T13:40:21;6.73;;;6.13;;
3121;SDS011;1571;52.524;14.104;2023-05-20T13:42:49;7.40;;;6.70;;
3121;SDS011;1571;52.524;14.104;2023-05-20T13:45:18;7.07;;;6.40;;
3121;SDS011;1571;52.524;14.104;2023-05-20T13:47:49;8.60;;;7.80;;
3121;SDS011;1571;52.524;14.104;2023-05-20T13:50:18;7.23;;;6.53;;
3121;SDS011;1571;52.524;14.104;2023-05-20T13:52:46;7.97;;;6.07;;
3121;SDS011;1571;52.524;14.104;2023-05-20T13:55:15;7.20;;;6.50;;
3121;SDS011;1571;52.524;14.104;2023-05-20T13:57:44;6.50;;;5.90;;
3121;SDS011;1571;52.524;14.104;2023-05-20T14:00:12;6.13;;;5.53;;
3121;SDS011;1571;52.524;14.104;2023-05-20T14:02:41;11.37;;;5.50;;
3121;SDS011;1571;52.524;14.104;2023-05-20T14:05:11;7.90;;;6.13;;
3121;SDS011;1571;52.524;14.104;2023-05-20T14:07:39;7.43;;;5.63;;
3121;SDS011;1571;52.524;14.104;2023-05-20T14:10:08;8.10;;;6.50;;
3121;SDS011;1571;52.524;14.104;2023-05-20T14:12:37;7.40;;;6.30;;
3121;SDS011;1571;52.524;14.104;2023-05-20T14:15:06;7.67;;;6.60;;
3121;SDS011;1571;52.524;14.104;2023-05-20T14:17:34;6.50;;;5.87;;
3121;SDS011;1571;52.524;14.104;2023-05-20T14:20:03;8.43;;;5.60;;
3121;SDS011;1571;52.524;14.104;2023-05-20T14:22:34;6.37;;;5.77;;
3121;SDS011;1571;52.524;14.104;2023-05-20T14:25:02;7.03;;;6.37;;
3121;SDS011;1571;52.524;14.104;2023-05-20T14:27:31;8.57;;;6.63;;
3121;SDS011;1571;52.524;14.104;2023-05-20T14:29:59;6.13;;;5.40;;
3121;SDS011;1571;52.524;14.104;2023-05-20T14:32:27;5.87;;;5.37;;
3121;SDS011;1571;52.524;14.104;2023-05-20T14:34:56;6.70;;;6.10;;
3121;SDS011;1571;52.524;14.104;2023-05-20T14:37:24;6.17;;;5.57;;
3121;SDS011;1571;52.524;14.104;2023-05-20T14:39:55;5.60;;;5.10;;
3121;SDS011;1571;52.524;14.104;2023-05-20T14:42:23;6.10;;;5.60;;
3121;SDS011;1571;52.524;14.104;2023-05-20T14:44:52;6.90;;;5.27;;
3121;SDS011;1571;52.524;14.104;2023-05-20T14:47:20;6.67;;;5.33;;
3121;SDS011;1571;52.524;14.104;2023-05-20T14:49:48;5.83;;;5.43;;
3121;SDS011;1571;52.524;14.104;2023-05-20T14:52:17;5.73;;;5.23;;
3121;SDS011;1571;52.524;14.104;2023-05-20T14:54:45;5.93;;;5.30;;
3121;SDS011;1571;52.524;14.104;2023-05-20T14:57:15;5.60;;;5.10;;
3121;SDS011;1571;52.524;14.104;2023-05-20T14:59:44;8.83;;;5.33;;
3121;SDS011;1571;52.524;14.104;2023-05-20T15:02:12;5.60;;;4.90;;
3121;SDS011;1571;52.524;14.104;2023-05-20T15:04:42;5.30;;;4.57;;
3121;SDS011;1571;52.524;14.104;2023-05-20T15:07:12;4.93;;;4.50;;
3121;SDS011;1571;52.524;14.104;2023-05-20T15:09:40;5.33;;;4.90;;
3121;SDS011;1571;52.524;14.104;2023-05-20T15:12:09;5.73;;;5.20;;
3121;SDS011;1571;52.524;14.104;2023-05-20T15:14:39;6.17;;;5.57;;